sensor_id;sensor_type;location;lat;lon;timestamp;P1;durP1;ratioP1;P2;durP2;ratioP2
59788;SDS011;47353;51.614;5.530;2023-01-28T00:01:18;16.42;;;9.75;;
59788;SDS011;47353;51.614;5.530;2023-01-28T00:03:43;17.25;;;10.05;;
59788;SDS011;47353;51.614;5.530;2023-01-28T00:06:13;15.65;;;10.00;;
59788;SDS011;47353;51.614;5.530;2023-01-28T00:08:39;15.85;;;9.98;;
59788;SDS011;47353;51.614;5.530;2023-01-28T00:11:06;15.90;;;9.73;;
59788;SDS011;47353;51.614;5.530;2023-01-28T00:13:34;14.43;;;9.30;;
59788;SDS011;47353;51.614;5.530;2023-01-28T00:16:00;15.20;;;9.55;;
59788;SDS011;47353;51.614;5.530;2023-01-28T00:18:29;15.75;;;9.93;;
59788;SDS011;47353;51.614;5.530;2023-01-28T00:21:16;16.13;;;9.82;;
59788;SDS011;47353;51.614;5.530;2023-01-28T00:23:41;15.82;;;9.70;;
59788;SDS011;47353;51.614;5.530;2023-01-28T00:26:11;13.93;;;8.63;;
59788;SDS011;47353;51.614;5.530;2023-01-28T00:28:38;14.68;;;9.13;;
59788;SDS011;47353;51.614;5.530;2023-01-28T00:33:38;15.95;;;9.68;;
59788;SDS011;47353;51.614;5.530;2023-01-28T00:36:04;13.73;;;9.05;;
59788;SDS011;47353;51.614;5.530;2023-01-28T00:38:30;14.85;;;9.32;;
59788;SDS011;47353;51.614;5.530;2023-01-28T00:41:05;17.98;;;10.05;;
59788;SDS011;47353;51.614;5.530;2023-01-28T00:43:36;15.05;;;9.63;;
59788;SDS011;47353;51.614;5.530;2023-01-28T00:46:02;14.82;;;9.23;;
59788;SDS011;47353;51.614;5.530;2023-01-28T00:48:28;14.60;;;9.13;;
59788;SDS011;47353;51.614;5.530;2023-01-28T00:50:53;15.82;;;9.75;;
59788;SDS011;47353;51.614;5.530;2023-01-28T00:53:19;15.45;;;9.88;;
59788;SDS011;47353;51.614;5.530;2023-01-28T00:55:44;17.00;;;10.60;;
59788;SDS011;47353;51.614;5.530;2023-01-28T00:58:09;16.15;;;10.02;;
59788;SDS011;47353;51.614;5.530;2023-01-28T01:00:35;15.35;;;9.77;;
59788;SDS011;47353;51.614;5.530;2023-01-28T01:03:00;15.52;;;9.32;;
59788;SDS011;47353;51.614;5.530;2023-01-28T01:05:25;16.42;;;10.10;;
59788;SDS011;47353;51.614;5.530;2023-01-28T01:07:51;17.08;;;10.02;;
59788;SDS011;47353;51.614;5.530;2023-01-28T01:10:17;16.20;;;9.85;;
59788;SDS011;47353;51.614;5.530;2023-01-28T01:12:47;14.82;;;9.43;;
59788;SDS011;47353;51.614;5.530;2023-01-28T01:15:13;16.45;;;9.98;;
59788;SDS011;47353;51.614;5.530;2023-01-28T01:17:41;15.82;;;9.77;;
59788;SDS011;47353;51.614;5.530;2023-01-28T01:20:10;17.80;;;11.15;;
59788;SDS011;47353;51.614;5.530;2023-01-28T01:22:39;16.90;;;10.32;;
59788;SDS011;47353;51.614;5.530;2023-01-28T01:25:04;17.95;;;10.85;;
59788;SDS011;47353;51.614;5.530;2023-01-28T01:27:31;16.08;;;9.85;;
59788;SDS011;47353;51.614;5.530;2023-01-28T01:29:56;17.70;;;10.68;;
59788;SDS011;47353;51.614;5.530;2023-01-28T01:32:23;17.23;;;10.35;;
59788;SDS011;47353;51.614;5.530;2023-01-28T01:34:49;16.80;;;10.35;;
59788;SDS011;47353;51.614;5.530;2023-01-28T01:37:15;17.45;;;10.77;;
59788;SDS011;47353;51.614;5.530;2023-01-28T01:39:40;16.58;;;10.13;;
59788;SDS011;47353;51.614;5.530;2023-01-28T01:42:08;17.02;;;11.07;;
59788;SDS011;47353;51.614;5.530;2023-01-28T01:47:24;18.70;;;11.15;;
59788;SDS011;47353;51.614;5.530;2023-01-28T01:50:08;16.13;;;10.15;;
59788;SDS011;47353;51.614;5.530;2023-01-28T01:52:40;17.25;;;10.23;;
59788;SDS011;47353;51.614;5.530;2023-01-28T01:55:09;17.45;;;10.15;;
59788;SDS011;47353;51.614;5.530;2023-01-28T01:57:38;16.52;;;10.05;;
59788;SDS011;47353;51.614;5.530;2023-01-28T02:00:05;17.00;;;9.77;;
59788;SDS011;47353;51.614;5.530;2023-01-28T02:02:32;15.93;;;10.10;;
59788;SDS011;47353;51.614;5.530;2023-01-28T02:05:02;15.32;;;10.48;;
59788;SDS011;47353;51.614;5.530;2023-01-28T02:07:28;17.98;;;10.68;;
59788;SDS011;47353;51.614;5.530;2023-01-28T02:09:54;16.48;;;10.45;;
59788;SDS011;47353;51.614;5.530;2023-01-28T02:12:20;14.90;;;9.65;;
59788;SDS011;47353;51.614;5.530;2023-01-28T02:14:55;16.63;;;10.30;;
59788;SDS011;47353;51.614;5.530;2023-01-28T02:17:24;15.13;;;9.60;;
59788;SDS011;47353;51.614;5.530;2023-01-28T02:19:56;14.73;;;9.73;;
59788;SDS011;47353;51.614;5.530;2023-01-28T02:30:43;14.88;;;9.73;;
59788;SDS011;47353;51.614;5.530;2023-01-28T02:33:29;14.25;;;9.10;;
59788;SDS011;47353;51.614;5.530;2023-01-28T02:36:02;13.85;;;9.25;;
59788;SDS011;47353;51.614;5.530;2023-01-28T02:38:51;15.63;;;9.57;;
59788;SDS011;47353;51.614;5.530;2023-01-28T02:41:24;15.98;;;10.05;;
59788;SDS011;47353;51.614;5.530;2023-01-28T02:43:56;16.88;;;10.15;;
59788;SDS011;47353;51.614;5.530;2023-01-28T02:46:33;15.18;;;9.32;;
59788;SDS011;47353;51.614;5.530;2023-01-28T02:49:24;14.57;;;9.40;;
59788;SDS011;47353;51.614;5.530;2023-01-28T03:03:11;13.27;;;8.30;;
59788;SDS011;47353;51.614;5.530;2023-01-28T03:05:44;11.88;;;8.30;;
59788;SDS011;47353;51.614;5.530;2023-01-28T03:11:26;11.82;;;7.47;;
59788;SDS011;47353;51.614;5.530;2023-01-28T03:14:13;13.35;;;8.35;;
59788;SDS011;47353;51.614;5.530;2023-01-28T03:17:00;11.60;;;7.90;;
59788;SDS011;47353;51.614;5.530;2023-01-28T03:19:46;11.85;;;7.72;;
59788;SDS011;47353;51.614;5.530;2023-01-28T03:22:31;11.77;;;7.82;;
59788;SDS011;47353;51.614;5.530;2023-01-28T03:25:20;13.00;;;8.52;;
59788;SDS011;47353;51.614;5.530;2023-01-28T03:28:07;12.32;;;8.32;;
59788;SDS011;47353;51.614;5.530;2023-01-28T03:30:57;13.93;;;8.98;;
59788;SDS011;47353;51.614;5.530;2023-01-28T03:33:47;13.02;;;8.60;;
59788;SDS011;47353;51.614;5.530;2023-01-28T03:36:34;14.70;;;9.18;;
59788;SDS011;47353;51.614;5.530;2023-01-28T03:39:16;15.13;;;9.32;;
59788;SDS011;47353;51.614;5.530;2023-01-28T03:41:54;15.43;;;9.63;;
59788;SDS011;47353;51.614;5.530;2023-01-28T03:44:24;15.60;;;9.55;;
59788;SDS011;47353;51.614;5.530;2023-01-28T03:47:09;17.35;;;10.68;;
59788;SDS011;47353;51.614;5.530;2023-01-28T03:49:37;15.48;;;9.88;;
59788;SDS011;47353;51.614;5.530;2023-01-28T03:52:04;16.38;;;10.20;;
59788;SDS011;47353;51.614;5.530;2023-01-28T03:54:29;16.95;;;10.15;;
59788;SDS011;47353;51.614;5.530;2023-01-28T03:56:54;17.35;;;10.15;;
59788;SDS011;47353;51.614;5.530;2023-01-28T03:59:20;16.77;;;9.57;;
59788;SDS011;47353;51.614;5.530;2023-01-28T04:01:45;18.63;;;10.68;;
59788;SDS011;47353;51.614;5.530;2023-01-28T04:04:10;17.73;;;10.40;;
59788;SDS011;47353;51.614;5.530;2023-01-28T04:06:46;18.52;;;10.60;;
59788;SDS011;47353;51.614;5.530;2023-01-28T04:09:12;15.93;;;9.88;;
59788;SDS011;47353;51.614;5.530;2023-01-28T04:11:38;18.10;;;10.75;;
59788;SDS011;47353;51.614;5.530;2023-01-28T04:14:03;17.48;;;10.40;;
59788;SDS011;47353;51.614;5.530;2023-01-28T04:16:28;16.92;;;10.60;;
59788;SDS011;47353;51.614;5.530;2023-01-28T04:18:54;20.88;;;10.70;;
59788;SDS011;47353;51.614;5.530;2023-01-28T04:21:20;17.98;;;10.77;;
59788;SDS011;47353;51.614;5.530;2023-01-28T04:23:45;19.52;;;11.88;;
59788;SDS011;47353;51.614;5.530;2023-01-28T04:26:10;17.17;;;10.30;;
59788;SDS011;47353;51.614;5.530;2023-01-28T04:28:36;18.13;;;10.65;;
59788;SDS011;47353;51.614;5.530;2023-01-28T04:31:01;17.08;;;10.30;;
59788;SDS011;47353;51.614;5.530;2023-01-28T04:33:27;18.30;;;10.77;;
59788;SDS011;47353;51.614;5.530;2023-01-28T04:35:52;18.05;;;10.43;;
59788;SDS011;47353;51.614;5.530;2023-01-28T04:38:18;18.73;;;10.80;;
59788;SDS011;47353;51.614;5.530;2023-01-28T04:40:43;19.42;;;10.60;;
59788;SDS011;47353;51.614;5.530;2023-01-28T04:43:08;17.50;;;10.65;;
59788;SDS011;47353;51.614;5.530;2023-01-28T04:45:34;18.05;;;10.63;;
59788;SDS011;47353;51.614;5.530;2023-01-28T04:47:59;16.92;;;10.07;;
59788;SDS011;47353;51.614;5.530;2023-01-28T04:50:25;18.02;;;10.82;;
59788;SDS011;47353;51.614;5.530;2023-01-28T04:52:50;19.38;;;11.07;;
59788;SDS011;47353;51.614;5.530;2023-01-28T04:55:15;19.25;;;10.40;;
59788;SDS011;47353;51.614;5.530;2023-01-28T04:57:41;17.85;;;10.30;;
59788;SDS011;47353;51.614;5.530;2023-01-28T05:00:06;18.48;;;10.20;;
59788;SDS011;47353;51.614;5.530;2023-01-28T05:02:32;17.90;;;10.63;;
59788;SDS011;47353;51.614;5.530;2023-01-28T05:04:58;18.20;;;10.55;;
59788;SDS011;47353;51.614;5.530;2023-01-28T05:07:25;16.55;;;9.88;;
59788;SDS011;47353;51.614;5.530;2023-01-28T05:09:51;17.63;;;10.52;;
59788;SDS011;47353;51.614;5.530;2023-01-28T05:12:16;16.50;;;9.57;;
59788;SDS011;47353;51.614;5.530;2023-01-28T05:14:41;16.38;;;9.88;;
59788;SDS011;47353;51.614;5.530;2023-01-28T05:17:07;15.57;;;9.93;;
59788;SDS011;47353;51.614;5.530;2023-01-28T05:19:33;15.02;;;9.75;;
59788;SDS011;47353;51.614;5.530;2023-01-28T05:21:58;15.68;;;9.40;;
59788;SDS011;47353;51.614;5.530;2023-01-28T05:24:24;15.55;;;9.20;;
59788;SDS011;47353;51.614;5.530;2023-01-28T05:26:49;13.73;;;8.50;;
59788;SDS011;47353;51.614;5.530;2023-01-28T05:29:14;13.15;;;8.50;;
59788;SDS011;47353;51.614;5.530;2023-01-28T05:31:40;14.80;;;8.82;;
59788;SDS011;47353;51.614;5.530;2023-01-28T05:34:05;13.43;;;8.70;;
59788;SDS011;47353;51.614;5.530;2023-01-28T05:36:30;13.43;;;8.65;;
59788;SDS011;47353;51.614;5.530;2023-01-28T05:38:56;13.15;;;8.32;;
59788;SDS011;47353;51.614;5.530;2023-01-28T05:41:21;13.05;;;8.57;;
59788;SDS011;47353;51.614;5.530;2023-01-28T05:43:46;12.82;;;8.35;;
59788;SDS011;47353;51.614;5.530;2023-01-28T05:46:12;12.70;;;8.55;;
59788;SDS011;47353;51.614;5.530;2023-01-28T05:48:37;14.07;;;8.65;;
59788;SDS011;47353;51.614;5.530;2023-01-28T05:51:03;13.95;;;8.77;;
59788;SDS011;47353;51.614;5.530;2023-01-28T05:53:29;14.65;;;9.43;;
59788;SDS011;47353;51.614;5.530;2023-01-28T05:55:55;14.70;;;9.77;;
59788;SDS011;47353;51.614;5.530;2023-01-28T05:58:20;14.52;;;9.30;;
59788;SDS011;47353;51.614;5.530;2023-01-28T06:00:45;15.27;;;8.82;;
59788;SDS011;47353;51.614;5.530;2023-01-28T06:03:11;15.35;;;9.48;;
59788;SDS011;47353;51.614;5.530;2023-01-28T06:05:37;15.35;;;9.63;;
59788;SDS011;47353;51.614;5.530;2023-01-28T06:08:02;14.48;;;9.02;;
59788;SDS011;47353;51.614;5.530;2023-01-28T06:10:29;14.90;;;9.23;;
59788;SDS011;47353;51.614;5.530;2023-01-28T06:12:54;15.73;;;9.15;;
59788;SDS011;47353;51.614;5.530;2023-01-28T06:15:20;14.52;;;9.20;;
59788;SDS011;47353;51.614;5.530;2023-01-28T06:17:45;15.80;;;9.68;;
59788;SDS011;47353;51.614;5.530;2023-01-28T06:20:11;15.63;;;9.65;;
59788;SDS011;47353;51.614;5.530;2023-01-28T06:22:37;15.90;;;9.88;;
59788;SDS011;47353;51.614;5.530;2023-01-28T06:25:03;16.33;;;10.20;;
59788;SDS011;47353;51.614;5.530;2023-01-28T06:27:28;16.75;;;9.70;;
59788;SDS011;47353;51.614;5.530;2023-01-28T06:29:54;16.25;;;9.93;;
59788;SDS011;47353;51.614;5.530;2023-01-28T06:32:19;15.98;;;9.63;;
59788;SDS011;47353;51.614;5.530;2023-01-28T06:34:45;16.83;;;10.20;;
59788;SDS011;47353;51.614;5.530;2023-01-28T06:37:14;14.98;;;9.30;;
59788;SDS011;47353;51.614;5.530;2023-01-28T06:39:39;15.68;;;9.90;;
59788;SDS011;47353;51.614;5.530;2023-01-28T06:42:05;15.55;;;9.52;;
59788;SDS011;47353;51.614;5.530;2023-01-28T06:44:30;14.75;;;9.48;;
59788;SDS011;47353;51.614;5.530;2023-01-28T06:46:56;16.52;;;9.63;;
59788;SDS011;47353;51.614;5.530;2023-01-28T06:49:21;15.52;;;9.48;;
59788;SDS011;47353;51.614;5.530;2023-01-28T06:51:47;15.38;;;9.45;;
59788;SDS011;47353;51.614;5.530;2023-01-28T06:54:12;15.60;;;9.52;;
59788;SDS011;47353;51.614;5.530;2023-01-28T06:56:37;15.57;;;9.70;;
59788;SDS011;47353;51.614;5.530;2023-01-28T06:59:03;16.30;;;10.13;;
59788;SDS011;47353;51.614;5.530;2023-01-28T07:01:28;16.63;;;9.73;;
59788;SDS011;47353;51.614;5.530;2023-01-28T07:03:54;15.45;;;9.45;;
59788;SDS011;47353;51.614;5.530;2023-01-28T07:06:20;15.30;;;9.48;;
59788;SDS011;47353;51.614;5.530;2023-01-28T07:08:46;16.27;;;10.23;;
59788;SDS011;47353;51.614;5.530;2023-01-28T07:11:11;17.95;;;10.10;;
59788;SDS011;47353;51.614;5.530;2023-01-28T07:13:37;16.10;;;9.48;;
59788;SDS011;47353;51.614;5.530;2023-01-28T07:16:02;15.77;;;9.48;;
59788;SDS011;47353;51.614;5.530;2023-01-28T07:18:28;16.67;;;9.88;;
59788;SDS011;47353;51.614;5.530;2023-01-28T07:20:54;15.50;;;9.75;;
59788;SDS011;47353;51.614;5.530;2023-01-28T07:23:20;15.40;;;8.95;;
59788;SDS011;47353;51.614;5.530;2023-01-28T07:25:46;15.43;;;9.50;;
59788;SDS011;47353;51.614;5.530;2023-01-28T07:28:11;16.50;;;9.40;;
59788;SDS011;47353;51.614;5.530;2023-01-28T07:30:37;16.75;;;10.05;;
59788;SDS011;47353;51.614;5.530;2023-01-28T07:33:02;17.77;;;10.05;;
59788;SDS011;47353;51.614;5.530;2023-01-28T07:35:28;16.63;;;9.35;;
59788;SDS011;47353;51.614;5.530;2023-01-28T07:37:54;17.20;;;10.10;;
59788;SDS011;47353;51.614;5.530;2023-01-28T07:40:24;18.38;;;10.10;;
59788;SDS011;47353;51.614;5.530;2023-01-28T07:42:50;16.55;;;10.05;;
59788;SDS011;47353;51.614;5.530;2023-01-28T07:45:17;17.50;;;9.90;;
59788;SDS011;47353;51.614;5.530;2023-01-28T07:47:43;18.60;;;10.57;;
59788;SDS011;47353;51.614;5.530;2023-01-28T07:50:09;17.08;;;10.65;;
59788;SDS011;47353;51.614;5.530;2023-01-28T07:52:35;16.85;;;10.07;;
59788;SDS011;47353;51.614;5.530;2023-01-28T07:55:09;16.48;;;9.43;;
59788;SDS011;47353;51.614;5.530;2023-01-28T07:57:36;18.35;;;10.45;;
59788;SDS011;47353;51.614;5.530;2023-01-28T08:00:01;16.60;;;9.90;;
59788;SDS011;47353;51.614;5.530;2023-01-28T08:02:28;16.75;;;10.00;;
59788;SDS011;47353;51.614;5.530;2023-01-28T08:04:54;17.00;;;9.68;;
59788;SDS011;47353;51.614;5.530;2023-01-28T08:07:23;15.73;;;9.50;;
59788;SDS011;47353;51.614;5.530;2023-01-28T08:09:49;17.13;;;10.23;;
59788;SDS011;47353;51.614;5.530;2023-01-28T08:12:15;17.25;;;10.32;;
59788;SDS011;47353;51.614;5.530;2023-01-28T08:14:40;19.35;;;10.18;;
59788;SDS011;47353;51.614;5.530;2023-01-28T08:17:06;16.00;;;9.45;;
59788;SDS011;47353;51.614;5.530;2023-01-28T08:19:31;16.05;;;9.73;;
59788;SDS011;47353;51.614;5.530;2023-01-28T08:21:57;16.88;;;10.23;;
59788;SDS011;47353;51.614;5.530;2023-01-28T08:24:22;17.20;;;10.10;;
59788;SDS011;47353;51.614;5.530;2023-01-28T08:26:47;16.55;;;10.15;;
59788;SDS011;47353;51.614;5.530;2023-01-28T08:29:13;16.92;;;10.07;;
59788;SDS011;47353;51.614;5.530;2023-01-28T08:31:38;17.20;;;9.75;;
59788;SDS011;47353;51.614;5.530;2023-01-28T08:34:03;17.50;;;10.25;;
59788;SDS011;47353;51.614;5.530;2023-01-28T08:36:29;16.33;;;9.57;;
59788;SDS011;47353;51.614;5.530;2023-01-28T08:38:54;18.50;;;10.07;;
59788;SDS011;47353;51.614;5.530;2023-01-28T08:41:21;16.23;;;9.35;;
59788;SDS011;47353;51.614;5.530;2023-01-28T08:43:46;17.20;;;10.23;;
59788;SDS011;47353;51.614;5.530;2023-01-28T08:46:12;18.35;;;10.35;;
59788;SDS011;47353;51.614;5.530;2023-01-28T08:48:37;16.85;;;9.93;;
59788;SDS011;47353;51.614;5.530;2023-01-28T08:51:04;16.60;;;9.82;;
59788;SDS011;47353;51.614;5.530;2023-01-28T08:53:30;17.33;;;9.85;;
59788;SDS011;47353;51.614;5.530;2023-01-28T08:55:55;18.02;;;10.77;;
59788;SDS011;47353;51.614;5.530;2023-01-28T08:58:21;16.60;;;9.50;;
59788;SDS011;47353;51.614;5.530;2023-01-28T09:00:46;17.65;;;10.73;;
59788;SDS011;47353;51.614;5.530;2023-01-28T09:03:12;16.40;;;10.35;;
59788;SDS011;47353;51.614;5.530;2023-01-28T09:05:37;16.92;;;10.27;;
59788;SDS011;47353;51.614;5.530;2023-01-28T09:08:07;17.05;;;10.30;;
59788;SDS011;47353;51.614;5.530;2023-01-28T09:10:34;17.05;;;10.00;;
59788;SDS011;47353;51.614;5.530;2023-01-28T09:13:08;16.67;;;9.95;;
59788;SDS011;47353;51.614;5.530;2023-01-28T09:15:38;15.82;;;10.05;;
59788;SDS011;47353;51.614;5.530;2023-01-28T09:18:04;17.30;;;10.43;;
59788;SDS011;47353;51.614;5.530;2023-01-28T09:20:30;17.33;;;10.38;;
59788;SDS011;47353;51.614;5.530;2023-01-28T09:22:57;20.05;;;10.52;;
59788;SDS011;47353;51.614;5.530;2023-01-28T09:25:23;16.33;;;10.48;;
59788;SDS011;47353;51.614;5.530;2023-01-28T09:27:48;18.33;;;10.98;;
59788;SDS011;47353;51.614;5.530;2023-01-28T09:30:14;18.88;;;11.43;;
59788;SDS011;47353;51.614;5.530;2023-01-28T09:32:40;17.42;;;11.13;;
59788;SDS011;47353;51.614;5.530;2023-01-28T09:35:05;18.58;;;11.13;;
59788;SDS011;47353;51.614;5.530;2023-01-28T09:37:31;17.60;;;11.27;;
59788;SDS011;47353;51.614;5.530;2023-01-28T09:39:56;18.83;;;10.98;;
59788;SDS011;47353;51.614;5.530;2023-01-28T09:47:38;17.25;;;10.60;;
59788;SDS011;47353;51.614;5.530;2023-01-28T09:50:15;20.05;;;11.13;;
59788;SDS011;47353;51.614;5.530;2023-01-28T09:52:56;18.02;;;11.20;;
59788;SDS011;47353;51.614;5.530;2023-01-28T09:58:11;17.85;;;11.40;;
59788;SDS011;47353;51.614;5.530;2023-01-28T10:03:38;16.88;;;10.85;;
59788;SDS011;47353;51.614;5.530;2023-01-28T10:06:39;19.23;;;11.45;;
59788;SDS011;47353;51.614;5.530;2023-01-28T10:09:18;16.35;;;10.25;;
59788;SDS011;47353;51.614;5.530;2023-01-28T10:14:33;16.23;;;10.55;;
59788;SDS011;47353;51.614;5.530;2023-01-28T10:19:52;18.40;;;11.63;;
59788;SDS011;47353;51.614;5.530;2023-01-28T10:22:21;19.08;;;12.18;;
59788;SDS011;47353;51.614;5.530;2023-01-28T10:24:54;18.02;;;11.20;;
59788;SDS011;47353;51.614;5.530;2023-01-28T10:27:30;19.45;;;10.93;;
59788;SDS011;47353;51.614;5.530;2023-01-28T10:30:07;17.55;;;11.07;;
59788;SDS011;47353;51.614;5.530;2023-01-28T10:32:50;16.38;;;10.38;;
59788;SDS011;47353;51.614;5.530;2023-01-28T10:35:18;17.38;;;11.20;;
59788;SDS011;47353;51.614;5.530;2023-01-28T10:37:44;18.33;;;11.07;;
59788;SDS011;47353;51.614;5.530;2023-01-28T10:40:16;17.88;;;11.63;;
59788;SDS011;47353;51.614;5.530;2023-01-28T10:42:42;18.20;;;10.95;;
59788;SDS011;47353;51.614;5.530;2023-01-28T10:45:14;17.83;;;10.95;;
59788;SDS011;47353;51.614;5.530;2023-01-28T10:47:43;19.42;;;10.77;;
59788;SDS011;47353;51.614;5.530;2023-01-28T10:50:14;17.20;;;10.45;;
59788;SDS011;47353;51.614;5.530;2023-01-28T10:55:19;16.25;;;10.13;;
59788;SDS011;47353;51.614;5.530;2023-01-28T10:57:45;16.73;;;10.25;;
59788;SDS011;47353;51.614;5.530;2023-01-28T11:02:54;19.35;;;9.95;;
59788;SDS011;47353;51.614;5.530;2023-01-28T11:05:22;16.77;;;10.20;;
59788;SDS011;47353;51.614;5.530;2023-01-28T11:08:02;17.38;;;10.55;;
59788;SDS011;47353;51.614;5.530;2023-01-28T11:10:30;19.52;;;10.38;;
59788;SDS011;47353;51.614;5.530;2023-01-28T11:12:58;16.17;;;10.10;;
59788;SDS011;47353;51.614;5.530;2023-01-28T11:15:25;18.58;;;9.73;;
59788;SDS011;47353;51.614;5.530;2023-01-28T11:17:55;15.80;;;10.30;;
59788;SDS011;47353;51.614;5.530;2023-01-28T11:20:23;16.13;;;10.15;;
59788;SDS011;47353;51.614;5.530;2023-01-28T11:22:51;15.93;;;10.35;;
59788;SDS011;47353;51.614;5.530;2023-01-28T11:25:29;15.38;;;10.02;;
59788;SDS011;47353;51.614;5.530;2023-01-28T11:28:04;16.50;;;9.15;;
59788;SDS011;47353;51.614;5.530;2023-01-28T11:30:33;15.82;;;9.95;;
59788;SDS011;47353;51.614;5.530;2023-01-28T11:33:15;12.95;;;8.25;;
59788;SDS011;47353;51.614;5.530;2023-01-28T11:35:51;10.70;;;7.00;;
59788;SDS011;47353;51.614;5.530;2023-01-28T11:38:19;10.57;;;7.13;;
59788;SDS011;47353;51.614;5.530;2023-01-28T11:40:54;10.98;;;7.43;;
59788;SDS011;47353;51.614;5.530;2023-01-28T11:43:22;10.82;;;6.47;;
59788;SDS011;47353;51.614;5.530;2023-01-28T11:51:19;10.65;;;7.30;;
59788;SDS011;47353;51.614;5.530;2023-01-28T11:59:53;10.25;;;7.30;;
59788;SDS011;47353;51.614;5.530;2023-01-28T12:13:32;7.78;;;6.00;;
59788;SDS011;47353;51.614;5.530;2023-01-28T12:24:41;9.60;;;6.65;;
59788;SDS011;47353;51.614;5.530;2023-01-28T12:33:21;10.32;;;7.47;;
59788;SDS011;47353;51.614;5.530;2023-01-28T12:41:27;9.75;;;7.28;;
59788;SDS011;47353;51.614;5.530;2023-01-28T12:44:00;8.65;;;6.90;;
59788;SDS011;47353;51.614;5.530;2023-01-28T12:46:41;9.05;;;7.00;;
59788;SDS011;47353;51.614;5.530;2023-01-28T12:49:39;8.95;;;7.15;;
59788;SDS011;47353;51.614;5.530;2023-01-28T12:52:18;9.07;;;6.93;;
59788;SDS011;47353;51.614;5.530;2023-01-28T12:57:27;9.13;;;7.20;;
59788;SDS011;47353;51.614;5.530;2023-01-28T13:02:34;10.27;;;7.25;;
59788;SDS011;47353;51.614;5.530;2023-01-28T13:05:08;10.30;;;7.88;;
59788;SDS011;47353;51.614;5.530;2023-01-28T13:10:26;10.70;;;7.68;;
59788;SDS011;47353;51.614;5.530;2023-01-28T13:12:58;8.20;;;7.03;;
59788;SDS011;47353;51.614;5.530;2023-01-28T13:15:24;9.13;;;7.22;;
59788;SDS011;47353;51.614;5.530;2023-01-28T13:18:26;7.60;;;6.80;;
59788;SDS011;47353;51.614;5.530;2023-01-28T13:20:57;8.68;;;7.32;;
59788;SDS011;47353;51.614;5.530;2023-01-28T13:28:42;9.70;;;7.15;;
59788;SDS011;47353;51.614;5.530;2023-01-28T13:31:09;8.57;;;7.20;;
59788;SDS011;47353;51.614;5.530;2023-01-28T13:33:42;8.35;;;7.05;;
59788;SDS011;47353;51.614;5.530;2023-01-28T13:41:39;9.02;;;6.85;;
59788;SDS011;47353;51.614;5.530;2023-01-28T13:44:20;8.65;;;6.63;;
59788;SDS011;47353;51.614;5.530;2023-01-28T13:46:52;10.05;;;6.57;;
59788;SDS011;47353;51.614;5.530;2023-01-28T13:54:34;8.73;;;6.82;;
59788;SDS011;47353;51.614;5.530;2023-01-28T13:57:07;10.60;;;6.38;;
59788;SDS011;47353;51.614;5.530;2023-01-28T14:05:43;8.98;;;6.30;;
59788;SDS011;47353;51.614;5.530;2023-01-28T14:11:51;8.35;;;6.20;;
59788;SDS011;47353;51.614;5.530;2023-01-28T14:20:21;8.57;;;6.68;;
59788;SDS011;47353;51.614;5.530;2023-01-28T14:22:56;6.95;;;5.82;;
59788;SDS011;47353;51.614;5.530;2023-01-28T14:31:07;7.43;;;6.32;;
59788;SDS011;47353;51.614;5.530;2023-01-28T14:36:05;8.73;;;6.72;;
59788;SDS011;47353;51.614;5.530;2023-01-28T14:38:36;7.25;;;6.18;;
59788;SDS011;47353;51.614;5.530;2023-01-28T14:41:05;7.85;;;6.28;;
59788;SDS011;47353;51.614;5.530;2023-01-28T14:43:32;7.93;;;6.57;;
59788;SDS011;47353;51.614;5.530;2023-01-28T14:46:17;8.07;;;6.35;;
59788;SDS011;47353;51.614;5.530;2023-01-28T15:00:22;11.15;;;7.03;;
59788;SDS011;47353;51.614;5.530;2023-01-28T15:02:52;10.05;;;6.50;;
59788;SDS011;47353;51.614;5.530;2023-01-28T15:05:21;8.60;;;6.43;;
59788;SDS011;47353;51.614;5.530;2023-01-28T15:07:49;10.60;;;6.53;;
59788;SDS011;47353;51.614;5.530;2023-01-28T15:10:16;10.27;;;7.57;;
59788;SDS011;47353;51.614;5.530;2023-01-28T15:12:54;9.50;;;7.15;;
59788;SDS011;47353;51.614;5.530;2023-01-28T15:15:24;9.55;;;7.20;;
59788;SDS011;47353;51.614;5.530;2023-01-28T15:17:55;12.45;;;6.80;;
59788;SDS011;47353;51.614;5.530;2023-01-28T15:20:26;9.85;;;6.65;;
59788;SDS011;47353;51.614;5.530;2023-01-28T15:22:52;11.60;;;7.50;;
59788;SDS011;47353;51.614;5.530;2023-01-28T15:25:19;10.98;;;7.28;;
59788;SDS011;47353;51.614;5.530;2023-01-28T15:27:46;10.23;;;7.55;;
59788;SDS011;47353;51.614;5.530;2023-01-28T15:30:17;11.13;;;7.88;;
59788;SDS011;47353;51.614;5.530;2023-01-28T15:32:55;10.38;;;7.53;;
59788;SDS011;47353;51.614;5.530;2023-01-28T15:35:47;12.02;;;8.40;;
59788;SDS011;47353;51.614;5.530;2023-01-28T15:38:14;12.93;;;8.60;;
59788;SDS011;47353;51.614;5.530;2023-01-28T15:40:42;11.68;;;8.43;;
59788;SDS011;47353;51.614;5.530;2023-01-28T15:43:28;12.18;;;9.00;;
59788;SDS011;47353;51.614;5.530;2023-01-28T15:45:55;12.38;;;8.93;;
59788;SDS011;47353;51.614;5.530;2023-01-28T15:48:32;11.57;;;8.32;;
59788;SDS011;47353;51.614;5.530;2023-01-28T15:53:30;14.45;;;10.32;;
59788;SDS011;47353;51.614;5.530;2023-01-28T15:56:09;11.80;;;8.27;;
59788;SDS011;47353;51.614;5.530;2023-01-28T15:58:36;13.13;;;8.20;;
59788;SDS011;47353;51.614;5.530;2023-01-28T16:03:34;12.13;;;8.75;;
59788;SDS011;47353;51.614;5.530;2023-01-28T16:06:12;13.02;;;8.85;;
59788;SDS011;47353;51.614;5.530;2023-01-28T16:08:52;14.55;;;8.70;;
59788;SDS011;47353;51.614;5.530;2023-01-28T16:11:23;13.77;;;8.77;;
59788;SDS011;47353;51.614;5.530;2023-01-28T16:13:51;15.90;;;9.48;;
59788;SDS011;47353;51.614;5.530;2023-01-28T16:16:24;14.43;;;9.52;;
59788;SDS011;47353;51.614;5.530;2023-01-28T16:18:53;15.82;;;9.98;;
59788;SDS011;47353;51.614;5.530;2023-01-28T16:21:30;17.40;;;10.27;;
59788;SDS011;47353;51.614;5.530;2023-01-28T16:26:27;16.33;;;10.40;;
59788;SDS011;47353;51.614;5.530;2023-01-28T16:28:54;15.82;;;9.90;;
59788;SDS011;47353;51.614;5.530;2023-01-28T16:31:20;21.80;;;13.07;;
59788;SDS011;47353;51.614;5.530;2023-01-28T16:33:46;20.92;;;11.57;;
59788;SDS011;47353;51.614;5.530;2023-01-28T16:36:11;21.00;;;10.85;;
59788;SDS011;47353;51.614;5.530;2023-01-28T16:38:40;18.15;;;10.57;;
59788;SDS011;47353;51.614;5.530;2023-01-28T16:41:23;17.58;;;10.63;;
59788;SDS011;47353;51.614;5.530;2023-01-28T16:43:50;19.77;;;11.90;;
59788;SDS011;47353;51.614;5.530;2023-01-28T16:46:16;17.13;;;10.65;;
59788;SDS011;47353;51.614;5.530;2023-01-28T16:48:42;17.73;;;10.88;;
59788;SDS011;47353;51.614;5.530;2023-01-28T16:51:10;16.17;;;10.32;;
59788;SDS011;47353;51.614;5.530;2023-01-28T16:53:41;18.42;;;10.40;;
59788;SDS011;47353;51.614;5.530;2023-01-28T16:56:09;16.13;;;9.77;;
59788;SDS011;47353;51.614;5.530;2023-01-28T16:58:40;15.90;;;9.80;;
59788;SDS011;47353;51.614;5.530;2023-01-28T17:01:05;17.70;;;10.82;;
59788;SDS011;47353;51.614;5.530;2023-01-28T17:03:31;23.00;;;14.40;;
59788;SDS011;47353;51.614;5.530;2023-01-28T17:05:59;22.70;;;13.50;;
59788;SDS011;47353;51.614;5.530;2023-01-28T17:08:24;21.48;;;13.00;;
59788;SDS011;47353;51.614;5.530;2023-01-28T17:10:50;18.65;;;10.60;;
59788;SDS011;47353;51.614;5.530;2023-01-28T17:13:19;20.58;;;11.13;;
59788;SDS011;47353;51.614;5.530;2023-01-28T17:15:44;18.08;;;10.65;;
59788;SDS011;47353;51.614;5.530;2023-01-28T17:18:10;21.70;;;12.90;;
59788;SDS011;47353;51.614;5.530;2023-01-28T17:20:36;20.67;;;12.43;;
59788;SDS011;47353;51.614;5.530;2023-01-28T17:23:04;20.80;;;12.90;;